KFOD

Fort Dodge Regional Airport

Fort Dodge, Iowa, USA
KFOD 232333Z 2400/2424 VRB04KT P6SM SKC FM241200 14005KT P6SM SCT250 FM241600 15009KT P6SM BKN250
Issued Valid From Valid To
Oct-23 @ 23:33 UTC
(5 hours ago)
Oct-24 @ 00:00 UTC
(5 hours ago)
Oct-25 @ 00:00 UTC
(in 19 hours)
Oct-24 @ 00:00 to Oct-24 @ 12:00
KFOD 232333Z 2400/2424 VRB04KT P6SM SKC
Wind Visibility Clouds
Variable at 4 knots Greater than 6 miles
  • Clear skies
From Oct-24 @ 12:00 to Oct-24 @ 16:00
FM241200 14005KT P6SM SCT250
Wind Visibility Clouds
140° at 5 knots Greater than 6 miles
  • Scattered at 25,000' AGL
From Oct-24 @ 16:00 to Oct-25 @ 00:00
FM241600 15009KT P6SM BKN250
Wind Visibility Clouds
150° at 9 knots Greater than 6 miles
  • Broken at 25,000' AGL
KFOD 232333Z 2400/2424 VRB04KT P6SM SKC FM241200 14005KT P6SM SCT250 FM241600 15009KT P6SM BKN250
Issued Oct-23 @ 23:33 UTC
(5 hours ago)
Valid From Oct-24 @ 00:00 UTC
(5 hours ago)
Valid To Oct-25 @ 00:00 UTC
(in 19 hours)
Oct-24 @ 00:00 - Oct-24 @ 12:00
Wind Visibility
Variable at 4 knots Greater than 6 miles
Clouds
  • Clear skies
From Oct-24 @ 12:00 - Oct-24 @ 16:00
Wind Visibility
140° at 5 knots Greater than 6 miles
Clouds
  • Scattered at 25,000' AGL
From Oct-24 @ 16:00 - Oct-25 @ 00:00
Wind Visibility
150° at 9 knots Greater than 6 miles
Clouds
  • Broken at 25,000' AGL